createdAt,value
2017-10-02T00:01:55.378Z,15.72
2017-10-02T00:04:23.006Z,15.72
2017-10-02T00:06:50.631Z,15.70
2017-10-02T00:09:18.290Z,15.66
2017-10-02T00:11:45.878Z,15.63
2017-10-02T00:14:13.549Z,15.58
2017-10-02T00:16:41.142Z,15.61
2017-10-02T00:19:08.771Z,15.60
2017-10-02T00:21:36.405Z,15.57
2017-10-02T00:24:04.121Z,15.57
2017-10-02T00:26:31.728Z,15.57
2017-10-02T00:28:59.342Z,15.57
2017-10-02T00:31:26.937Z,15.61
2017-10-02T00:33:54.553Z,15.61
2017-10-02T00:36:22.135Z,15.60
2017-10-02T00:38:49.786Z,15.62
2017-10-02T00:41:17.382Z,15.62
2017-10-02T00:43:45.030Z,15.58
2017-10-02T00:46:12.626Z,15.60
2017-10-02T00:48:40.225Z,15.59
2017-10-02T00:51:07.866Z,15.57
2017-10-02T00:53:35.470Z,15.54
2017-10-02T00:56:03.110Z,15.52
2017-10-02T00:58:30.710Z,15.52
2017-10-02T01:00:58.340Z,15.48
2017-10-02T01:03:25.964Z,15.48
2017-10-02T01:05:53.575Z,15.45
2017-10-02T01:08:21.161Z,15.40
2017-10-02T01:10:48.782Z,15.40
2017-10-02T01:13:16.390Z,15.37
2017-10-02T01:15:44.023Z,15.37
2017-10-02T01:18:11.631Z,15.39
2017-10-02T01:20:39.269Z,15.39
2017-10-02T01:23:06.902Z,15.40
2017-10-02T01:25:34.552Z,15.43
2017-10-02T01:28:02.175Z,15.44
2017-10-02T01:30:29.758Z,15.49
2017-10-02T01:32:57.374Z,15.53
2017-10-02T01:35:25.058Z,15.57
2017-10-02T01:37:52.673Z,15.60
2017-10-02T01:40:20.284Z,15.58
2017-10-02T01:42:47.925Z,15.59
2017-10-02T01:45:15.521Z,15.58
2017-10-02T01:47:43.156Z,15.56
2017-10-02T01:50:10.755Z,15.55
2017-10-02T01:52:38.381Z,15.57
2017-10-02T01:55:05.979Z,15.58
2017-10-02T01:57:33.615Z,15.56
2017-10-02T02:00:01.207Z,15.57
2017-10-02T02:02:28.824Z,15.58
2017-10-02T02:04:56.415Z,15.58
2017-10-02T02:07:24.032Z,15.56
2017-10-02T02:09:51.678Z,15.59
2017-10-02T02:12:19.326Z,15.53
2017-10-02T02:14:46.924Z,15.51
2017-10-02T02:17:14.575Z,15.47
2017-10-02T02:19:42.211Z,15.45
2017-10-02T02:22:09.838Z,15.35
2017-10-02T02:24:37.430Z,15.26
2017-10-02T02:27:05.063Z,15.24
2017-10-02T02:29:32.678Z,15.15
2017-10-02T02:32:00.313Z,15.08
2017-10-02T02:34:27.908Z,15.01
2017-10-02T02:36:55.531Z,15.00
2017-10-02T02:39:23.150Z,14.95
2017-10-02T02:41:50.766Z,14.92
2017-10-02T02:44:18.385Z,14.87
2017-10-02T02:46:46.004Z,14.88
2017-10-02T02:49:13.650Z,14.85
2017-10-02T02:51:41.263Z,14.85
2017-10-02T02:54:08.852Z,14.87
2017-10-02T02:56:36.576Z,14.87
2017-10-02T02:59:04.175Z,14.90
2017-10-02T03:01:31.822Z,14.93
2017-10-02T03:03:59.414Z,14.93
2017-10-02T03:06:27.074Z,14.96
2017-10-02T03:08:54.671Z,14.94
2017-10-02T03:11:22.299Z,14.96
2017-10-02T03:13:49.894Z,14.98
2017-10-02T03:16:17.564Z,14.98
2017-10-02T03:18:45.181Z,15.02
2017-10-02T03:21:12.811Z,15.03
2017-10-02T03:23:40.399Z,15.04
2017-10-02T03:26:08.026Z,15.05
2017-10-02T03:28:35.623Z,15.06
2017-10-02T03:31:03.247Z,15.08
2017-10-02T03:33:30.873Z,15.09
2017-10-02T03:35:58.533Z,15.14
2017-10-02T03:38:26.256Z,15.18
2017-10-02T03:40:53.966Z,15.17
2017-10-02T03:43:21.574Z,15.14
2017-10-02T03:45:49.191Z,15.13
2017-10-02T03:48:16.910Z,15.15
2017-10-02T03:50:44.543Z,15.17
2017-10-02T03:53:12.182Z,15.19
2017-10-02T03:55:39.783Z,15.17
2017-10-02T03:58:07.415Z,15.12
2017-10-02T04:00:35.047Z,15.11
2017-10-02T04:03:02.676Z,15.11
2017-10-02T04:05:30.266Z,15.13
2017-10-02T04:07:57.906Z,15.11
2017-10-02T04:10:25.517Z,15.11
2017-10-02T04:12:53.185Z,15.12
2017-10-02T04:15:20.826Z,15.12
2017-10-02T04:17:48.499Z,15.11
2017-10-02T04:20:16.084Z,15.09
2017-10-02T04:22:43.722Z,15.12
2017-10-02T04:25:11.348Z,15.11
2017-10-02T04:27:38.982Z,15.12
2017-10-02T04:30:06.627Z,15.16
2017-10-02T04:32:34.233Z,15.14
2017-10-02T04:35:01.872Z,15.15
2017-10-02T04:37:29.478Z,15.16
2017-10-02T04:39:57.092Z,15.16
2017-10-02T04:42:24.821Z,15.21
2017-10-02T04:44:52.658Z,15.20
2017-10-02T04:47:20.255Z,15.21
2017-10-02T04:49:47.870Z,15.22
2017-10-02T04:52:15.478Z,15.23
2017-10-02T04:54:43.354Z,15.16
2017-10-02T04:57:11.082Z,15.15
2017-10-02T04:59:38.711Z,15.12
2017-10-02T05:02:06.497Z,15.08
2017-10-02T05:04:34.143Z,15.01
2017-10-02T05:07:01.752Z,14.97
2017-10-02T05:09:29.434Z,14.95
2017-10-02T05:11:57.038Z,14.96
2017-10-02T05:14:24.767Z,14.95
2017-10-02T05:16:52.404Z,14.95
2017-10-02T05:19:20.092Z,14.99
2017-10-02T05:21:47.694Z,14.98
2017-10-02T05:24:15.346Z,14.99
2017-10-02T05:26:43.139Z,15.02
2017-10-02T05:29:10.927Z,15.02
2017-10-02T05:31:38.967Z,15.03
2017-10-02T05:34:06.578Z,15.04
2017-10-02T05:36:34.211Z,15.04
2017-10-02T05:39:01.915Z,15.04
2017-10-02T05:41:30.647Z,15.01
2017-10-02T05:43:58.668Z,15.03
2017-10-02T05:46:26.622Z,15.06
2017-10-02T05:48:54.253Z,15.05
2017-10-02T05:51:21.890Z,15.06
2017-10-02T05:53:49.551Z,15.06
2017-10-02T05:56:17.169Z,15.06
2017-10-02T05:58:44.754Z,15.08
2017-10-02T06:01:12.427Z,15.08
2017-10-02T06:03:40.065Z,15.11
2017-10-02T06:06:07.793Z,15.15
2017-10-02T06:08:35.405Z,15.16
2017-10-02T06:11:03.033Z,15.18
2017-10-02T06:13:30.642Z,15.22
2017-10-02T06:15:58.292Z,15.25
2017-10-02T06:18:25.910Z,15.27
2017-10-02T06:20:53.552Z,15.28
2017-10-02T06:23:21.207Z,15.29
2017-10-02T06:25:48.826Z,15.28
2017-10-02T06:28:16.542Z,15.31
2017-10-02T06:30:44.140Z,15.33
2017-10-02T06:33:11.786Z,15.35
2017-10-02T06:35:39.389Z,15.38
2017-10-02T06:38:07.118Z,15.39
2017-10-02T06:40:34.745Z,15.40
2017-10-02T06:43:02.382Z,15.40
2017-10-02T06:45:30.006Z,15.42
2017-10-02T06:47:57.630Z,15.42
2017-10-02T06:50:25.222Z,15.44
2017-10-02T06:52:52.858Z,15.46
2017-10-02T06:55:20.461Z,15.48
2017-10-02T06:57:48.153Z,15.53
2017-10-02T07:00:15.749Z,15.55
2017-10-02T07:02:43.595Z,15.61
2017-10-02T07:05:11.197Z,15.65
2017-10-02T07:07:38.853Z,15.67
2017-10-02T07:10:06.487Z,15.68
2017-10-02T07:12:34.116Z,15.68
2017-10-02T07:15:01.783Z,15.67
2017-10-02T07:17:29.378Z,15.71
2017-10-02T07:19:57.008Z,15.74
2017-10-02T07:22:24.825Z,15.74
2017-10-02T07:24:52.529Z,15.74
2017-10-02T07:27:20.146Z,15.78
2017-10-02T07:29:47.812Z,15.77
2017-10-02T07:32:15.407Z,15.77
2017-10-02T07:34:43.035Z,15.76
2017-10-02T07:37:10.627Z,15.75
2017-10-02T07:39:38.246Z,15.77
2017-10-02T07:42:05.866Z,15.79
2017-10-02T07:44:33.527Z,15.79
2017-10-02T07:47:01.170Z,15.79
2017-10-02T07:49:28.796Z,15.81
2017-10-02T07:51:56.402Z,15.84
2017-10-02T07:54:24.070Z,15.85
2017-10-02T07:56:51.662Z,15.83
2017-10-02T07:59:19.311Z,15.82
2017-10-02T08:01:46.925Z,15.84
2017-10-02T08:04:14.524Z,15.85
2017-10-02T08:06:42.368Z,15.85
2017-10-02T08:09:09.972Z,15.87
2017-10-02T08:11:37.664Z,15.88
2017-10-02T08:14:05.283Z,15.89
2017-10-02T08:16:32.914Z,15.91
2017-10-02T08:19:00.539Z,15.90
2017-10-02T08:21:28.298Z,15.92
2017-10-02T08:23:55.949Z,15.95
2017-10-02T08:26:23.605Z,15.98
2017-10-02T08:28:51.207Z,16.02
2017-10-02T08:31:18.930Z,16.05
2017-10-02T08:33:46.523Z,16.06
2017-10-02T08:36:14.200Z,16.07
2017-10-02T08:38:41.789Z,16.04
2017-10-02T08:41:09.426Z,16.08
2017-10-02T08:43:37.046Z,16.04
2017-10-02T08:46:04.678Z,16.03
2017-10-02T08:48:32.305Z,16.03
2017-10-02T08:50:59.920Z,16.05
2017-10-02T08:53:27.655Z,16.04
2017-10-02T08:55:55.351Z,16.06
2017-10-02T08:58:22.948Z,16.07
2017-10-02T09:00:50.590Z,16.09
2017-10-02T09:03:18.357Z,16.08
2017-10-02T09:05:46.037Z,16.08
2017-10-02T09:08:13.647Z,16.12
2017-10-02T09:10:41.264Z,16.10
2017-10-02T09:13:08.875Z,16.12
2017-10-02T09:15:36.485Z,16.16
2017-10-02T09:18:04.115Z,16.20
2017-10-02T09:20:31.730Z,16.25
2017-10-02T09:22:59.371Z,16.27
2017-10-02T09:25:27.108Z,16.27
2017-10-02T09:27:54.693Z,16.23
2017-10-02T09:30:22.347Z,16.22
2017-10-02T09:32:49.928Z,16.22
2017-10-02T09:35:17.639Z,16.22
2017-10-02T09:37:45.342Z,16.27
2017-10-02T09:40:12.982Z,16.32
2017-10-02T09:42:40.632Z,16.36
2017-10-02T09:45:08.298Z,16.45
2017-10-02T09:47:35.937Z,16.48
2017-10-02T09:50:03.558Z,16.45
2017-10-02T09:52:31.197Z,16.47
2017-10-02T09:54:58.811Z,16.47
2017-10-02T09:57:26.446Z,16.51
2017-10-02T09:59:54.060Z,16.55
2017-10-02T10:02:21.714Z,16.58
2017-10-02T10:04:49.331Z,16.71
2017-10-02T10:07:16.994Z,16.90
2017-10-02T10:09:44.606Z,16.98
2017-10-02T10:12:12.226Z,17.04
2017-10-02T10:14:39.834Z,17.11
2017-10-02T10:17:07.567Z,17.23
2017-10-02T10:19:35.193Z,17.36
2017-10-02T10:22:02.822Z,17.50
2017-10-02T10:24:30.422Z,17.57
2017-10-02T10:26:58.094Z,17.66
2017-10-02T10:29:25.687Z,17.78
2017-10-02T10:31:53.369Z,17.85
2017-10-02T10:34:20.971Z,17.95
2017-10-02T10:36:48.689Z,18.03
2017-10-02T10:39:16.382Z,18.08
2017-10-02T10:41:43.997Z,18.11
2017-10-02T10:44:11.610Z,18.22
2017-10-02T10:46:39.279Z,18.42
2017-10-02T10:49:06.883Z,18.76
2017-10-02T10:51:34.496Z,18.84
2017-10-02T10:54:02.160Z,18.96
2017-10-02T10:56:29.770Z,18.99
2017-10-02T10:58:57.410Z,19.21
2017-10-02T11:01:25.035Z,19.26
2017-10-02T11:03:52.693Z,19.40
2017-10-02T11:06:20.308Z,19.31
2017-10-02T11:08:47.936Z,19.26
2017-10-02T11:11:15.541Z,19.09
2017-10-02T11:13:43.199Z,18.98
2017-10-02T11:16:10.854Z,18.87
2017-10-02T11:18:38.495Z,18.82
2017-10-02T11:21:06.094Z,18.76
2017-10-02T11:23:33.721Z,18.68
2017-10-02T11:26:01.526Z,18.57
2017-10-02T11:28:29.149Z,18.57
2017-10-02T11:30:56.770Z,18.55
2017-10-02T11:33:24.434Z,18.55
2017-10-02T11:35:52.184Z,18.54
2017-10-02T11:38:19.815Z,18.60
2017-10-02T11:40:47.462Z,18.72
2017-10-02T11:43:15.116Z,18.81
2017-10-02T11:45:42.713Z,18.86
2017-10-02T11:48:10.578Z,19.01
2017-10-02T11:50:38.198Z,19.19
2017-10-02T11:53:05.830Z,19.13
2017-10-02T11:55:33.407Z,19.11
2017-10-02T11:58:01.006Z,19.16
2017-10-02T12:00:28.768Z,19.15
2017-10-02T12:02:56.870Z,19.13
2017-10-02T12:05:24.508Z,19.09
2017-10-02T12:07:52.154Z,19.14
2017-10-02T12:10:19.817Z,19.09
2017-10-02T12:12:47.417Z,19.15
2017-10-02T12:15:15.046Z,19.47
2017-10-02T12:17:42.676Z,19.47
2017-10-02T12:20:10.303Z,19.40
2017-10-02T12:22:37.906Z,19.24
2017-10-02T12:25:05.530Z,19.32
2017-10-02T12:27:33.138Z,19.91
2017-10-02T12:30:00.775Z,20.34
2017-10-02T12:32:28.423Z,20.35
2017-10-02T12:34:56.039Z,20.44
2017-10-02T12:37:23.634Z,20.35
2017-10-02T12:39:51.383Z,20.06
2017-10-02T12:42:18.974Z,19.70
2017-10-02T12:44:46.615Z,19.59
2017-10-02T12:47:14.202Z,19.74
2017-10-02T12:49:42.582Z,19.65
2017-10-02T12:52:10.181Z,19.50
2017-10-02T12:54:37.944Z,19.37
2017-10-02T12:57:05.652Z,19.29
2017-10-02T12:59:33.286Z,19.57
2017-10-02T13:02:00.883Z,20.09
2017-10-02T13:04:28.546Z,19.86
2017-10-02T13:06:56.162Z,20.13
2017-10-02T13:09:23.815Z,19.96
2017-10-02T13:11:51.412Z,19.76
2017-10-02T13:14:19.104Z,19.59
2017-10-02T13:16:48.420Z,20.37
2017-10-02T13:19:16.066Z,20.86
2017-10-02T13:21:43.678Z,20.58
2017-10-02T13:24:11.327Z,20.14
2017-10-02T13:26:38.914Z,20.30
2017-10-02T13:29:06.574Z,20.28
2017-10-02T13:31:34.173Z,20.00
2017-10-02T13:34:01.843Z,19.91
2017-10-02T13:36:29.458Z,19.76
2017-10-02T13:38:57.073Z,20.01
2017-10-02T13:41:24.708Z,19.92
2017-10-02T13:43:52.351Z,20.01
2017-10-02T13:46:19.962Z,20.47
2017-10-02T13:48:47.585Z,20.39
2017-10-02T13:51:15.226Z,20.35
2017-10-02T13:53:42.923Z,20.47
2017-10-02T13:56:10.549Z,20.77
2017-10-02T13:58:38.213Z,21.35
2017-10-02T14:01:05.824Z,21.82
2017-10-02T14:03:33.410Z,22.22
2017-10-02T14:06:01.134Z,21.90
2017-10-02T14:08:28.763Z,21.68
2017-10-02T14:10:56.386Z,21.20
2017-10-02T14:13:24.045Z,20.90
2017-10-02T14:15:51.726Z,21.03
2017-10-02T14:18:19.392Z,21.34
2017-10-02T14:20:47.076Z,21.48
2017-10-02T14:23:14.661Z,20.96
2017-10-02T14:25:44.221Z,20.63
2017-10-02T14:28:11.930Z,20.48
2017-10-02T14:30:39.609Z,20.48
2017-10-02T14:33:07.214Z,20.47
2017-10-02T14:35:34.858Z,20.46
2017-10-02T14:38:02.495Z,20.55
2017-10-02T14:40:30.145Z,20.79
2017-10-02T14:42:57.797Z,20.68
2017-10-02T14:45:25.459Z,20.46
2017-10-02T14:47:53.131Z,20.41
2017-10-02T14:50:20.783Z,20.57
2017-10-02T14:52:48.443Z,20.50
2017-10-02T14:55:16.141Z,20.69
2017-10-02T14:57:43.718Z,20.74
2017-10-02T15:00:11.368Z,21.01
2017-10-02T15:02:38.987Z,21.28
2017-10-02T15:05:06.629Z,21.44
2017-10-02T15:07:34.218Z,21.58
2017-10-02T15:10:01.874Z,21.69
2017-10-02T15:12:29.534Z,21.48
2017-10-02T15:14:57.204Z,21.55
2017-10-02T15:17:24.817Z,21.48
2017-10-02T15:19:52.462Z,21.46
2017-10-02T15:22:20.120Z,21.33
2017-10-02T15:24:47.710Z,21.10
2017-10-02T15:27:15.383Z,20.94
2017-10-02T15:29:43.000Z,20.74
2017-10-02T15:32:10.650Z,20.56
2017-10-02T15:34:38.260Z,20.46
2017-10-02T15:37:06.008Z,20.36
2017-10-02T15:39:33.605Z,20.43
2017-10-02T15:42:01.227Z,20.38
2017-10-02T15:44:28.871Z,20.37
2017-10-02T15:46:56.476Z,20.24
2017-10-02T15:49:24.117Z,20.13
2017-10-02T15:51:51.750Z,20.06
2017-10-02T15:54:19.408Z,20.00
2017-10-02T15:56:47.011Z,19.91
2017-10-02T15:59:14.667Z,19.81
2017-10-02T16:01:42.285Z,19.77
2017-10-02T16:04:09.939Z,19.75
2017-10-02T16:06:37.564Z,19.71
2017-10-02T16:09:05.200Z,19.73
2017-10-02T16:11:32.807Z,19.69
2017-10-02T16:14:00.702Z,19.61
2017-10-02T16:16:28.319Z,19.54
2017-10-02T16:18:55.920Z,19.56
2017-10-02T16:21:23.583Z,19.55
2017-10-02T16:23:51.201Z,19.50
2017-10-02T16:26:18.878Z,19.46
2017-10-02T16:28:46.531Z,19.44
2017-10-02T16:31:14.185Z,19.40
2017-10-02T16:33:41.841Z,19.37
2017-10-02T16:36:09.490Z,19.30
2017-10-02T16:38:37.091Z,19.30
2017-10-02T16:41:04.745Z,19.30
2017-10-02T16:43:32.399Z,19.24
2017-10-02T16:46:00.204Z,19.19
2017-10-02T16:48:27.909Z,19.14
2017-10-02T16:50:55.646Z,19.15
2017-10-02T16:53:23.290Z,19.11
2017-10-02T16:55:50.906Z,19.12
2017-10-02T16:58:18.591Z,19.07
2017-10-02T17:00:46.193Z,19.03
2017-10-02T17:03:13.834Z,19.02
2017-10-02T17:05:41.435Z,19.04
2017-10-02T17:08:09.130Z,19.01
2017-10-02T17:10:36.755Z,18.98
2017-10-02T17:13:04.393Z,18.95
2017-10-02T17:15:31.999Z,18.94
2017-10-02T17:17:59.666Z,18.92
2017-10-02T17:20:27.262Z,18.93
2017-10-02T17:22:54.898Z,18.92
2017-10-02T17:25:22.564Z,18.91
2017-10-02T17:27:50.207Z,18.90
2017-10-02T17:30:17.846Z,18.86
2017-10-02T17:32:46.294Z,18.85
2017-10-02T17:35:13.899Z,18.79
2017-10-02T17:37:41.703Z,18.81
2017-10-02T17:40:09.346Z,18.83
2017-10-02T17:42:36.978Z,18.78
2017-10-02T17:45:04.678Z,18.75
2017-10-02T17:47:32.476Z,18.77
2017-10-02T17:50:00.219Z,18.74
2017-10-02T17:52:27.891Z,18.76
2017-10-02T17:54:55.646Z,18.69
2017-10-02T17:57:23.251Z,18.66
2017-10-02T17:59:51.054Z,18.65
2017-10-02T18:02:18.675Z,18.64
2017-10-02T18:04:46.331Z,18.60
2017-10-02T18:07:13.980Z,18.59
2017-10-02T18:09:41.618Z,18.56
2017-10-02T18:12:09.210Z,18.55
2017-10-02T18:14:36.872Z,18.51
2017-10-02T18:17:04.464Z,18.50
2017-10-02T18:19:32.241Z,18.50
2017-10-02T18:21:59.840Z,18.50
2017-10-02T18:24:27.476Z,18.51
2017-10-02T18:26:55.133Z,18.48
2017-10-02T18:29:22.754Z,18.46
2017-10-02T18:31:50.418Z,18.42
2017-10-02T18:34:18.052Z,18.41
2017-10-02T18:36:45.702Z,18.43
2017-10-02T18:39:13.359Z,18.43
2017-10-02T18:41:41.045Z,18.41
2017-10-02T18:44:08.662Z,18.34
2017-10-02T18:46:36.318Z,18.30
2017-10-02T18:49:03.921Z,18.27
2017-10-02T18:51:31.645Z,18.23
2017-10-02T18:53:59.242Z,18.23
2017-10-02T18:56:26.952Z,18.24
2017-10-02T18:58:54.581Z,18.23
2017-10-02T19:01:22.242Z,18.24
2017-10-02T19:03:49.849Z,18.20
2017-10-02T19:06:17.931Z,18.21
2017-10-02T19:08:45.553Z,18.17
2017-10-02T19:11:13.300Z,18.17
2017-10-02T19:13:41.002Z,18.15
2017-10-02T19:16:08.611Z,18.10
2017-10-02T19:18:36.247Z,18.07
2017-10-02T19:21:03.877Z,18.02
2017-10-02T19:23:31.544Z,17.99
2017-10-02T19:25:59.174Z,17.95
2017-10-02T19:28:26.839Z,17.95
2017-10-02T19:30:54.455Z,17.92
2017-10-02T19:33:22.115Z,17.92
2017-10-02T19:35:49.754Z,17.91
2017-10-02T19:38:17.420Z,17.88
2017-10-02T19:40:45.041Z,17.88
2017-10-02T19:43:12.714Z,17.83
2017-10-02T19:45:40.364Z,17.85
2017-10-02T19:48:08.006Z,17.82
2017-10-02T19:50:35.622Z,17.81
2017-10-02T19:53:03.222Z,17.76
2017-10-02T19:55:30.893Z,17.68
2017-10-02T19:57:58.579Z,17.67
2017-10-02T20:00:26.235Z,17.67
2017-10-02T20:02:53.843Z,17.62
2017-10-02T20:05:21.479Z,17.54
2017-10-02T20:07:49.094Z,17.53
2017-10-02T20:10:16.754Z,17.49
2017-10-02T20:12:44.437Z,17.43
2017-10-02T20:15:12.149Z,17.45
2017-10-02T20:17:39.758Z,17.46
2017-10-02T20:20:07.427Z,17.40
2017-10-02T20:22:35.062Z,17.39
2017-10-02T20:25:02.974Z,17.38
2017-10-02T20:27:30.600Z,17.30
2017-10-02T20:29:58.266Z,17.29
2017-10-02T20:32:26.067Z,17.30
2017-10-02T20:34:53.810Z,17.28
2017-10-02T20:37:21.450Z,17.23
2017-10-02T20:39:49.188Z,17.18
2017-10-02T20:42:17.059Z,17.14
2017-10-02T20:44:44.728Z,17.12
2017-10-02T20:47:12.418Z,17.10
2017-10-02T20:49:40.059Z,17.07
2017-10-02T20:52:07.726Z,17.07
2017-10-02T20:54:35.329Z,17.03
2017-10-02T20:57:02.935Z,17.00
2017-10-02T20:59:30.614Z,16.98
2017-10-02T21:01:58.210Z,16.98
2017-10-02T21:04:26.012Z,16.95
2017-10-02T21:06:53.834Z,16.93
2017-10-02T21:09:21.540Z,16.95
2017-10-02T21:11:49.158Z,16.94
2017-10-02T21:14:16.794Z,16.93
2017-10-02T21:16:44.409Z,16.90
2017-10-02T21:19:12.069Z,16.78
2017-10-02T21:21:39.707Z,16.73
2017-10-02T21:24:07.327Z,16.63
2017-10-02T21:26:34.994Z,16.61
2017-10-02T21:29:02.590Z,16.53
2017-10-02T21:31:30.253Z,16.49
2017-10-02T21:33:57.855Z,16.43
2017-10-02T21:36:25.505Z,16.42
2017-10-02T21:38:53.130Z,16.31
2017-10-02T21:41:20.774Z,16.26
2017-10-02T21:43:48.473Z,16.26
2017-10-02T21:46:16.106Z,16.21
2017-10-02T21:48:43.754Z,16.18
2017-10-02T21:51:11.534Z,16.08
2017-10-02T21:53:39.134Z,16.04
2017-10-02T21:56:06.943Z,15.94
2017-10-02T21:58:34.544Z,15.87
2017-10-02T22:01:02.135Z,15.80
2017-10-02T22:03:29.958Z,15.72
2017-10-02T22:05:57.553Z,15.66
2017-10-02T22:08:25.186Z,15.62
2017-10-02T22:10:52.802Z,15.55
2017-10-02T22:13:20.446Z,15.56
2017-10-02T22:15:48.044Z,15.49
2017-10-02T22:18:15.682Z,15.50
2017-10-02T22:20:43.278Z,15.42
2017-10-02T22:23:11.070Z,15.45
2017-10-02T22:25:38.679Z,15.44
2017-10-02T22:28:06.334Z,15.41
2017-10-02T22:30:33.949Z,15.44
2017-10-02T22:33:01.971Z,15.45
2017-10-02T22:35:29.664Z,15.40
2017-10-02T22:37:57.367Z,15.40
2017-10-02T22:40:25.225Z,15.42
2017-10-02T22:42:56.391Z,15.41
2017-10-02T22:45:24.041Z,15.37
2017-10-02T22:47:51.638Z,15.33
2017-10-02T22:50:19.311Z,15.28
2017-10-02T22:52:47.021Z,15.22
2017-10-02T22:55:14.663Z,15.13
2017-10-02T22:57:42.270Z,15.19
2017-10-02T23:00:09.924Z,15.21
2017-10-02T23:02:37.506Z,15.16
2017-10-02T23:05:05.147Z,15.15
2017-10-02T23:07:32.919Z,15.17
2017-10-02T23:10:00.559Z,15.13
2017-10-02T23:12:28.158Z,15.17
2017-10-02T23:14:55.839Z,15.12
2017-10-02T23:17:23.458Z,15.16
2017-10-02T23:19:51.093Z,15.21
2017-10-02T23:22:18.853Z,15.15
2017-10-02T23:24:46.732Z,15.11
2017-10-02T23:27:14.335Z,15.11
2017-10-02T23:29:41.995Z,15.17
2017-10-02T23:32:09.678Z,15.16
2017-10-02T23:34:37.309Z,15.13
2017-10-02T23:37:04.943Z,15.14
2017-10-02T23:39:32.697Z,15.04
2017-10-02T23:42:00.350Z,15.00
2017-10-02T23:44:27.976Z,15.02
2017-10-02T23:46:55.612Z,15.05
2017-10-02T23:49:23.215Z,15.09
2017-10-02T23:51:50.843Z,15.04
2017-10-02T23:54:18.487Z,15.02
2017-10-02T23:56:46.101Z,15.02
2017-10-02T23:59:13.774Z,15.00
